createdAt,value
2018-09-19T00:00:17.215Z,9
2018-09-19T00:05:19.614Z,9
2018-09-19T00:10:22.206Z,9
2018-09-19T00:15:24.534Z,9
2018-09-19T00:20:26.929Z,9
2018-09-19T00:25:29.419Z,8
2018-09-19T00:30:31.814Z,9
2018-09-19T00:35:34.271Z,9
2018-09-19T00:40:36.856Z,10
2018-09-19T00:45:39.134Z,10
2018-09-19T00:50:41.603Z,10
2018-09-19T00:55:44.046Z,10
2018-09-19T01:00:46.473Z,10
2018-09-19T01:05:48.900Z,9
2018-09-19T01:10:51.350Z,10
2018-09-19T01:15:53.847Z,9
2018-09-19T01:20:56.278Z,10
2018-09-19T01:25:58.650Z,10
2018-09-19T01:31:01.101Z,10
2018-09-19T01:36:03.558Z,10
2018-09-19T01:41:06.034Z,9
2018-09-19T01:46:08.433Z,10
2018-09-19T01:51:10.925Z,10
2018-09-19T01:56:13.294Z,10
2018-09-19T02:01:15.744Z,9
2018-09-19T02:06:18.185Z,10
2018-09-19T02:11:20.633Z,10
2018-09-19T02:16:23.096Z,8
2018-09-19T02:21:25.529Z,9
2018-09-19T02:26:27.961Z,10
2018-09-19T02:31:30.397Z,10
2018-09-19T02:36:32.847Z,10
2018-09-19T02:41:35.259Z,10
2018-09-19T02:46:37.719Z,9
2018-09-19T02:51:40.152Z,8
2018-09-19T02:56:42.627Z,10
2018-09-19T03:01:45.024Z,10
2018-09-19T03:06:47.523Z,9
2018-09-19T03:11:49.931Z,10
2018-09-19T03:16:52.548Z,9
2018-09-19T03:21:54.795Z,10
2018-09-19T03:26:57.282Z,11
2018-09-19T03:31:59.699Z,9
2018-09-19T03:37:02.112Z,9
2018-09-19T03:42:04.616Z,9
2018-09-19T03:47:06.994Z,8
2018-09-19T03:52:09.482Z,9
2018-09-19T03:57:11.896Z,9
2018-09-19T04:02:14.343Z,9
2018-09-19T04:07:16.815Z,10
2018-09-19T04:12:19.444Z,11
2018-09-19T04:17:21.643Z,12
2018-09-19T04:22:24.093Z,12
2018-09-19T04:27:26.659Z,12
2018-09-19T04:32:29.127Z,11
2018-09-19T04:37:31.474Z,11
2018-09-19T04:42:33.830Z,11
2018-09-19T04:47:36.301Z,11
2018-09-19T04:52:38.716Z,12
2018-09-19T04:57:41.209Z,13
2018-09-19T05:02:43.608Z,14
2018-09-19T05:07:46.142Z,14
2018-09-19T05:12:48.484Z,14
2018-09-19T05:17:51.141Z,13
2018-09-19T05:22:53.389Z,14
2018-09-19T05:27:55.866Z,14
2018-09-19T05:32:58.243Z,13
2018-09-19T05:38:00.683Z,14
2018-09-19T05:43:03.156Z,14
2018-09-19T05:48:05.565Z,13
2018-09-19T05:53:08.018Z,12
2018-09-19T05:58:10.534Z,13
2018-09-19T06:03:12.897Z,13
2018-09-19T06:08:15.329Z,13
2018-09-19T06:13:17.791Z,13
2018-09-19T06:18:20.262Z,14
2018-09-19T06:23:22.656Z,13
2018-09-19T06:28:25.106Z,14
2018-09-19T06:33:27.549Z,13
2018-09-19T06:38:30.043Z,13
2018-09-19T06:43:32.664Z,13
2018-09-19T06:48:34.887Z,13
2018-09-19T06:53:37.592Z,12
2018-09-19T06:58:39.987Z,12
2018-09-19T07:03:42.171Z,13
2018-09-19T07:08:44.615Z,12
2018-09-19T07:13:47.138Z,13
2018-09-19T07:18:49.577Z,14
2018-09-19T07:23:52.065Z,13
2018-09-19T07:28:54.474Z,12
2018-09-19T07:33:56.813Z,13
2018-09-19T07:38:59.255Z,12
2018-09-19T07:44:01.778Z,12
2018-09-19T07:49:04.231Z,11
2018-09-19T07:54:06.688Z,10
2018-09-19T07:59:09.071Z,10
2018-09-19T08:04:11.475Z,9
2018-09-19T08:09:14.000Z,9
2018-09-19T08:14:16.469Z,9
2018-09-19T08:19:18.795Z,11
2018-09-19T08:24:21.323Z,11
2018-09-19T08:29:23.684Z,10
2018-09-19T08:34:26.178Z,11
2018-09-19T08:39:28.687Z,13
2018-09-19T08:44:31.097Z,13
2018-09-19T08:49:33.562Z,13
2018-09-19T08:54:35.889Z,15
2018-09-19T08:59:38.518Z,16
2018-09-19T09:04:40.747Z,15
2018-09-19T09:09:43.196Z,16
2018-09-19T09:14:45.724Z,15
2018-09-19T09:19:48.404Z,16
2018-09-19T09:24:50.523Z,18
2018-09-19T09:29:52.966Z,19
2018-09-19T09:34:55.401Z,18
2018-09-19T09:39:57.842Z,18
2018-09-19T09:45:00.318Z,18
2018-09-19T09:50:02.743Z,17
2018-09-19T09:55:05.227Z,15
2018-09-19T10:00:07.716Z,14
2018-09-19T10:05:10.067Z,13
2018-09-19T10:10:12.539Z,13
2018-09-19T10:15:14.957Z,13
2018-09-19T10:20:17.392Z,13
2018-09-19T10:25:20.241Z,11
2018-09-19T10:30:22.480Z,9
2018-09-19T10:35:24.767Z,9
2018-09-19T10:40:27.168Z,8
2018-09-19T10:45:29.606Z,6
2018-09-19T10:50:32.224Z,4
2018-09-19T10:55:34.491Z,4
2018-09-19T11:00:36.957Z,4
2018-09-19T11:05:39.361Z,4
2018-09-19T11:10:41.860Z,5
2018-09-19T11:15:44.254Z,5
2018-09-19T11:20:46.670Z,5
2018-09-19T11:25:49.128Z,4
2018-09-19T11:30:51.557Z,4
2018-09-19T11:35:54.051Z,3
2018-09-19T11:40:56.711Z,3
2018-09-19T11:45:58.995Z,3
2018-09-19T11:51:01.320Z,3
2018-09-19T11:56:03.808Z,3
2018-09-19T12:01:06.264Z,3
2018-09-19T12:06:08.679Z,2
2018-09-19T12:11:11.225Z,2
2018-09-19T12:16:13.649Z,3
2018-09-19T12:21:16.031Z,2
2018-09-19T12:26:18.576Z,3
2018-09-19T12:31:21.071Z,3
2018-09-19T12:36:23.378Z,2
2018-09-19T12:41:25.750Z,2
2018-09-19T12:46:28.243Z,2
2018-09-19T12:51:30.667Z,2
2018-09-19T12:56:33.070Z,2
2018-09-19T13:01:35.535Z,2
2018-09-19T13:06:37.971Z,2
2018-09-19T13:11:40.766Z,2
2018-09-19T13:16:42.879Z,2
2018-09-19T13:21:45.333Z,5
2018-09-19T13:26:47.771Z,2
2018-09-19T13:31:50.176Z,2
2018-09-19T13:36:52.612Z,4
2018-09-19T13:41:55.081Z,4
2018-09-19T13:46:57.498Z,4
2018-09-19T13:52:00.034Z,3
2018-09-19T13:57:02.442Z,2
2018-09-19T14:02:04.859Z,2
2018-09-19T14:07:07.365Z,3
2018-09-19T14:12:09.737Z,3
2018-09-19T14:17:12.175Z,2
2018-09-19T14:22:14.603Z,4
2018-09-19T14:27:17.085Z,3
2018-09-19T14:32:19.518Z,2
2018-09-19T14:37:21.941Z,3
2018-09-19T14:42:24.398Z,3
2018-09-19T14:47:26.832Z,3
2018-09-19T14:52:29.353Z,3
2018-09-19T14:57:32.052Z,3
2018-09-19T15:02:34.193Z,3
2018-09-19T15:07:36.651Z,3
2018-09-19T15:12:39.069Z,3
2018-09-19T15:17:41.497Z,3
2018-09-19T15:22:43.926Z,3
2018-09-19T15:27:46.360Z,3
2018-09-19T15:32:48.830Z,4
2018-09-19T15:37:51.333Z,3
2018-09-19T15:42:53.775Z,3
2018-09-19T15:47:56.157Z,3
2018-09-19T15:52:58.701Z,3
2018-09-19T15:58:01.045Z,3
2018-09-19T16:03:03.500Z,3
2018-09-19T16:08:06.038Z,3
2018-09-19T16:13:08.541Z,3
2018-09-19T16:18:10.809Z,2
2018-09-19T16:23:13.501Z,3
2018-09-19T16:28:15.777Z,3
2018-09-19T16:33:18.166Z,3
2018-09-19T16:38:20.559Z,2
2018-09-19T16:43:23.881Z,3
2018-09-19T16:48:25.461Z,3
2018-09-19T16:53:27.923Z,2
2018-09-19T16:58:30.432Z,3
2018-09-19T17:03:32.894Z,2
2018-09-19T17:08:35.218Z,3
2018-09-19T17:13:38.197Z,3
2018-09-19T17:18:40.177Z,2
2018-09-19T17:23:42.651Z,3
2018-09-19T17:28:45.120Z,3
2018-09-19T17:33:47.435Z,2
2018-09-19T17:38:49.856Z,3
2018-09-19T17:43:53.451Z,3
2018-09-19T17:48:55.063Z,3
2018-09-19T17:53:57.208Z,3
2018-09-19T17:58:59.759Z,3
2018-09-19T18:04:02.166Z,3
2018-09-19T18:09:04.622Z,3
2018-09-19T18:14:06.953Z,3
2018-09-19T18:19:09.403Z,3
2018-09-19T18:24:11.885Z,3
2018-09-19T18:29:14.390Z,3
2018-09-19T18:34:16.896Z,3
2018-09-19T18:39:19.200Z,3
2018-09-19T18:44:22.456Z,3
2018-09-19T18:49:24.075Z,4
2018-09-19T18:54:26.503Z,4
2018-09-19T18:59:28.952Z,4
2018-09-19T19:04:31.399Z,4
2018-09-19T19:09:34.135Z,4
2018-09-19T19:14:36.302Z,4
2018-09-19T19:19:38.819Z,4
2018-09-19T19:24:41.171Z,4
2018-09-19T19:29:43.596Z,4
2018-09-19T19:34:46.040Z,5
2018-09-19T19:39:48.466Z,5
2018-09-19T19:44:51.036Z,5
2018-09-19T19:49:53.605Z,5
2018-09-19T19:54:55.816Z,4
2018-09-19T19:59:58.286Z,5
2018-09-19T20:05:00.747Z,5
2018-09-19T20:10:03.242Z,5
2018-09-19T20:15:05.560Z,4
2018-09-19T20:20:08.470Z,5
2018-09-19T20:25:10.486Z,5
2018-09-19T20:30:12.931Z,5
2018-09-19T20:35:15.658Z,5
2018-09-19T20:40:17.788Z,5
2018-09-19T20:45:20.293Z,5
2018-09-19T20:50:22.659Z,5
2018-09-19T20:55:25.262Z,5
2018-09-19T21:00:27.521Z,5
2018-09-19T21:05:30.874Z,5
2018-09-19T21:10:32.457Z,4
2018-09-19T21:15:34.958Z,5
2018-09-19T21:20:37.357Z,5
2018-09-19T21:25:39.746Z,5
2018-09-19T21:30:42.191Z,5
2018-09-19T21:35:44.672Z,5
2018-09-19T21:40:47.180Z,5
2018-09-19T21:45:49.502Z,5
2018-09-19T21:50:51.949Z,4
2018-09-19T21:55:54.381Z,4
2018-09-19T22:00:56.818Z,5
2018-09-19T22:05:59.363Z,5
2018-09-19T22:11:01.781Z,5
2018-09-19T22:16:04.236Z,5
2018-09-19T22:21:06.591Z,5
2018-09-19T22:26:09.023Z,6
2018-09-19T22:31:11.516Z,6
2018-09-19T22:36:14.057Z,5
2018-09-19T22:41:16.349Z,6
2018-09-19T22:46:18.810Z,6
2018-09-19T22:51:21.239Z,5
2018-09-19T22:56:23.704Z,6
2018-09-19T23:01:26.111Z,5
2018-09-19T23:06:28.581Z,6
2018-09-19T23:11:30.996Z,6
2018-09-19T23:16:33.480Z,5
2018-09-19T23:21:35.955Z,5
2018-09-19T23:26:38.326Z,5
2018-09-19T23:31:40.770Z,5
2018-09-19T23:36:43.212Z,4
2018-09-19T23:41:45.691Z,4
2018-09-19T23:46:48.110Z,4
2018-09-19T23:51:50.541Z,3
2018-09-19T23:56:53.239Z,3
